sensor_id;sensor_type;location;lat;lon;timestamp;P1;durP1;ratioP1;P2;durP2;ratioP2
7181;SDS011;3632;42.724;23.298;2023-10-13T00:01:53;11.77;;;6.47;;
7181;SDS011;3632;42.724;23.298;2023-10-13T00:04:20;11.37;;;6.93;;
7181;SDS011;3632;42.724;23.298;2023-10-13T00:06:48;12.67;;;6.90;;
7181;SDS011;3632;42.724;23.298;2023-10-13T00:09:16;14.17;;;7.53;;
7181;SDS011;3632;42.724;23.298;2023-10-13T00:11:44;11.43;;;6.93;;
7181;SDS011;3632;42.724;23.298;2023-10-13T00:14:11;12.17;;;7.07;;
7181;SDS011;3632;42.724;23.298;2023-10-13T00:16:42;13.00;;;7.57;;
7181;SDS011;3632;42.724;23.298;2023-10-13T00:19:25;12.23;;;7.03;;
7181;SDS011;3632;42.724;23.298;2023-10-13T00:21:53;12.40;;;7.10;;
7181;SDS011;3632;42.724;23.298;2023-10-13T00:24:22;11.00;;;7.70;;
7181;SDS011;3632;42.724;23.298;2023-10-13T00:26:55;12.30;;;7.47;;
7181;SDS011;3632;42.724;23.298;2023-10-13T00:29:22;10.03;;;7.63;;
7181;SDS011;3632;42.724;23.298;2023-10-13T00:31:57;15.63;;;8.53;;
7181;SDS011;3632;42.724;23.298;2023-10-13T00:34:24;15.07;;;8.97;;
7181;SDS011;3632;42.724;23.298;2023-10-13T00:36:54;15.50;;;8.80;;
7181;SDS011;3632;42.724;23.298;2023-10-13T00:39:36;16.43;;;8.67;;
7181;SDS011;3632;42.724;23.298;2023-10-13T00:42:05;19.37;;;9.20;;
7181;SDS011;3632;42.724;23.298;2023-10-13T00:44:33;19.60;;;10.43;;
7181;SDS011;3632;42.724;23.298;2023-10-13T00:47:07;14.30;;;9.33;;
7181;SDS011;3632;42.724;23.298;2023-10-13T00:49:41;11.90;;;8.83;;
7181;SDS011;3632;42.724;23.298;2023-10-13T00:52:13;13.73;;;9.07;;
7181;SDS011;3632;42.724;23.298;2023-10-13T00:54:42;11.83;;;8.13;;
7181;SDS011;3632;42.724;23.298;2023-10-13T00:57:12;12.97;;;8.03;;
7181;SDS011;3632;42.724;23.298;2023-10-13T00:59:51;14.03;;;7.90;;
7181;SDS011;3632;42.724;23.298;2023-10-13T01:02:19;10.30;;;7.23;;
7181;SDS011;3632;42.724;23.298;2023-10-13T01:05:03;11.43;;;6.50;;
7181;SDS011;3632;42.724;23.298;2023-10-13T01:07:32;10.47;;;6.73;;
7181;SDS011;3632;42.724;23.298;2023-10-13T01:10:02;12.60;;;6.73;;
7181;SDS011;3632;42.724;23.298;2023-10-13T01:12:29;8.43;;;6.87;;
7181;SDS011;3632;42.724;23.298;2023-10-13T01:14:57;10.90;;;6.60;;
7181;SDS011;3632;42.724;23.298;2023-10-13T01:17:24;14.30;;;6.97;;
7181;SDS011;3632;42.724;23.298;2023-10-13T01:19:56;7.60;;;6.03;;
7181;SDS011;3632;42.724;23.298;2023-10-13T01:22:24;10.10;;;7.13;;
7181;SDS011;3632;42.724;23.298;2023-10-13T01:24:51;10.53;;;7.03;;
7181;SDS011;3632;42.724;23.298;2023-10-13T01:27:29;11.80;;;7.33;;
7181;SDS011;3632;42.724;23.298;2023-10-13T01:29:55;12.80;;;7.00;;
7181;SDS011;3632;42.724;23.298;2023-10-13T01:32:24;12.27;;;6.60;;
7181;SDS011;3632;42.724;23.298;2023-10-13T01:34:50;7.37;;;5.80;;
7181;SDS011;3632;42.724;23.298;2023-10-13T01:37:20;11.33;;;6.40;;
7181;SDS011;3632;42.724;23.298;2023-10-13T01:39:46;9.97;;;6.90;;
7181;SDS011;3632;42.724;23.298;2023-10-13T01:42:15;13.73;;;6.70;;
7181;SDS011;3632;42.724;23.298;2023-10-13T01:44:44;10.13;;;6.30;;
7181;SDS011;3632;42.724;23.298;2023-10-13T01:47:11;9.03;;;6.37;;
7181;SDS011;3632;42.724;23.298;2023-10-13T01:49:37;11.17;;;7.40;;
7181;SDS011;3632;42.724;23.298;2023-10-13T01:52:09;9.53;;;7.13;;
7181;SDS011;3632;42.724;23.298;2023-10-13T01:54:37;9.83;;;7.50;;
7181;SDS011;3632;42.724;23.298;2023-10-13T01:57:05;10.53;;;7.33;;
7181;SDS011;3632;42.724;23.298;2023-10-13T01:59:32;10.50;;;7.17;;
7181;SDS011;3632;42.724;23.298;2023-10-13T02:02:08;12.63;;;7.27;;
7181;SDS011;3632;42.724;23.298;2023-10-13T02:04:37;8.90;;;7.30;;
7181;SDS011;3632;42.724;23.298;2023-10-13T02:07:07;11.13;;;7.97;;
7181;SDS011;3632;42.724;23.298;2023-10-13T02:09:33;13.07;;;8.70;;
7181;SDS011;3632;42.724;23.298;2023-10-13T02:12:02;14.77;;;7.90;;
7181;SDS011;3632;42.724;23.298;2023-10-13T02:14:28;14.53;;;8.20;;
7181;SDS011;3632;42.724;23.298;2023-10-13T02:16:59;17.47;;;8.33;;
7181;SDS011;3632;42.724;23.298;2023-10-13T02:19:37;16.70;;;8.70;;
7181;SDS011;3632;42.724;23.298;2023-10-13T02:22:04;21.23;;;8.63;;
7181;SDS011;3632;42.724;23.298;2023-10-13T02:24:34;15.20;;;8.97;;
7181;SDS011;3632;42.724;23.298;2023-10-13T02:27:05;13.10;;;8.53;;
7181;SDS011;3632;42.724;23.298;2023-10-13T02:29:38;12.77;;;7.47;;
7181;SDS011;3632;42.724;23.298;2023-10-13T02:32:06;13.73;;;8.23;;
7181;SDS011;3632;42.724;23.298;2023-10-13T02:34:38;11.47;;;7.63;;
7181;SDS011;3632;42.724;23.298;2023-10-13T02:37:09;11.57;;;8.27;;
7181;SDS011;3632;42.724;23.298;2023-10-13T02:39:35;16.23;;;8.50;;
7181;SDS011;3632;42.724;23.298;2023-10-13T02:42:01;15.70;;;8.00;;
7181;SDS011;3632;42.724;23.298;2023-10-13T02:44:32;14.20;;;7.90;;
7181;SDS011;3632;42.724;23.298;2023-10-13T02:46:58;11.07;;;7.77;;
7181;SDS011;3632;42.724;23.298;2023-10-13T02:49:26;12.93;;;7.97;;
7181;SDS011;3632;42.724;23.298;2023-10-13T02:51:56;12.20;;;8.17;;
7181;SDS011;3632;42.724;23.298;2023-10-13T02:54:24;12.60;;;8.63;;
7181;SDS011;3632;42.724;23.298;2023-10-13T02:56:55;11.40;;;7.17;;
7181;SDS011;3632;42.724;23.298;2023-10-13T02:59:22;10.97;;;6.93;;
7181;SDS011;3632;42.724;23.298;2023-10-13T03:01:59;12.63;;;7.40;;
7181;SDS011;3632;42.724;23.298;2023-10-13T03:04:26;11.37;;;6.53;;
7181;SDS011;3632;42.724;23.298;2023-10-13T03:06:53;11.50;;;7.40;;
7181;SDS011;3632;42.724;23.298;2023-10-13T03:09:19;11.20;;;6.87;;
7181;SDS011;3632;42.724;23.298;2023-10-13T03:11:47;9.73;;;6.97;;
7181;SDS011;3632;42.724;23.298;2023-10-13T03:14:14;11.00;;;7.23;;
7181;SDS011;3632;42.724;23.298;2023-10-13T03:16:51;10.67;;;7.43;;
7181;SDS011;3632;42.724;23.298;2023-10-13T03:19:17;14.57;;;6.93;;
7181;SDS011;3632;42.724;23.298;2023-10-13T03:21:46;9.83;;;7.57;;
7181;SDS011;3632;42.724;23.298;2023-10-13T03:24:20;12.90;;;6.90;;
7181;SDS011;3632;42.724;23.298;2023-10-13T03:26:48;11.77;;;7.27;;
7181;SDS011;3632;42.724;23.298;2023-10-13T03:29:17;14.53;;;7.77;;
7181;SDS011;3632;42.724;23.298;2023-10-13T03:31:47;12.63;;;7.80;;
7181;SDS011;3632;42.724;23.298;2023-10-13T03:34:31;14.00;;;7.73;;
7181;SDS011;3632;42.724;23.298;2023-10-13T03:37:01;18.53;;;8.23;;
7181;SDS011;3632;42.724;23.298;2023-10-13T03:39:36;12.40;;;7.50;;
7181;SDS011;3632;42.724;23.298;2023-10-13T03:42:02;13.33;;;7.60;;
7181;SDS011;3632;42.724;23.298;2023-10-13T03:44:30;20.43;;;10.80;;
7181;SDS011;3632;42.724;23.298;2023-10-13T03:46:57;15.27;;;8.77;;
7181;SDS011;3632;42.724;23.298;2023-10-13T03:49:34;11.17;;;8.77;;
7181;SDS011;3632;42.724;23.298;2023-10-13T03:52:05;15.90;;;8.53;;
7181;SDS011;3632;42.724;23.298;2023-10-13T03:54:32;14.77;;;8.07;;
7181;SDS011;3632;42.724;23.298;2023-10-13T03:57:00;16.23;;;8.10;;
7181;SDS011;3632;42.724;23.298;2023-10-13T03:59:35;14.53;;;7.77;;
7181;SDS011;3632;42.724;23.298;2023-10-13T04:02:03;13.40;;;8.00;;
7181;SDS011;3632;42.724;23.298;2023-10-13T04:04:37;13.40;;;7.67;;
7181;SDS011;3632;42.724;23.298;2023-10-13T04:07:14;18.03;;;9.67;;
7181;SDS011;3632;42.724;23.298;2023-10-13T04:10:07;17.13;;;9.50;;
7181;SDS011;3632;42.724;23.298;2023-10-13T04:12:48;14.70;;;8.73;;
7181;SDS011;3632;42.724;23.298;2023-10-13T04:15:32;14.80;;;8.17;;
7181;SDS011;3632;42.724;23.298;2023-10-13T04:18:07;15.47;;;7.50;;
7181;SDS011;3632;42.724;23.298;2023-10-13T04:20:57;13.77;;;9.00;;
7181;SDS011;3632;42.724;23.298;2023-10-13T04:23:36;15.27;;;7.87;;
7181;SDS011;3632;42.724;23.298;2023-10-13T04:26:27;19.57;;;9.97;;
7181;SDS011;3632;42.724;23.298;2023-10-13T04:29:13;13.37;;;8.80;;
7181;SDS011;3632;42.724;23.298;2023-10-13T04:31:55;21.13;;;9.50;;
7181;SDS011;3632;42.724;23.298;2023-10-13T04:34:25;19.33;;;10.57;;
7181;SDS011;3632;42.724;23.298;2023-10-13T04:37:03;18.33;;;10.03;;
7181;SDS011;3632;42.724;23.298;2023-10-13T04:39:49;23.63;;;11.03;;
7181;SDS011;3632;42.724;23.298;2023-10-13T04:42:23;26.90;;;12.70;;
7181;SDS011;3632;42.724;23.298;2023-10-13T04:45:04;23.03;;;10.93;;
7181;SDS011;3632;42.724;23.298;2023-10-13T04:47:52;25.77;;;10.33;;
7181;SDS011;3632;42.724;23.298;2023-10-13T04:50:22;27.10;;;10.17;;
7181;SDS011;3632;42.724;23.298;2023-10-13T04:52:59;26.53;;;9.97;;
7181;SDS011;3632;42.724;23.298;2023-10-13T04:55:29;22.20;;;9.90;;
7181;SDS011;3632;42.724;23.298;2023-10-13T04:58:24;18.97;;;9.87;;
7181;SDS011;3632;42.724;23.298;2023-10-13T05:01:21;19.83;;;8.97;;
7181;SDS011;3632;42.724;23.298;2023-10-13T05:04:17;20.60;;;9.80;;
7181;SDS011;3632;42.724;23.298;2023-10-13T05:06:55;18.40;;;9.93;;
7181;SDS011;3632;42.724;23.298;2023-10-13T05:09:36;19.57;;;9.70;;
7181;SDS011;3632;42.724;23.298;2023-10-13T05:12:20;17.53;;;8.27;;
7181;SDS011;3632;42.724;23.298;2023-10-13T05:15:04;17.77;;;7.87;;
7181;SDS011;3632;42.724;23.298;2023-10-13T05:17:48;14.10;;;7.93;;
7181;SDS011;3632;42.724;23.298;2023-10-13T05:20:34;15.57;;;8.20;;
7181;SDS011;3632;42.724;23.298;2023-10-13T05:23:18;15.97;;;8.37;;
7181;SDS011;3632;42.724;23.298;2023-10-13T05:26:02;14.57;;;8.43;;
7181;SDS011;3632;42.724;23.298;2023-10-13T05:28:46;16.43;;;7.90;;
7181;SDS011;3632;42.724;23.298;2023-10-13T05:31:44;14.53;;;7.50;;
7181;SDS011;3632;42.724;23.298;2023-10-13T05:34:28;15.67;;;8.30;;
7181;SDS011;3632;42.724;23.298;2023-10-13T05:37:14;14.97;;;7.53;;
7181;SDS011;3632;42.724;23.298;2023-10-13T05:39:58;17.13;;;7.40;;
7181;SDS011;3632;42.724;23.298;2023-10-13T05:42:42;17.17;;;7.90;;
7181;SDS011;3632;42.724;23.298;2023-10-13T05:45:38;15.53;;;8.50;;
7181;SDS011;3632;42.724;23.298;2023-10-13T05:48:26;14.50;;;7.53;;
7181;SDS011;3632;42.724;23.298;2023-10-13T05:51:17;13.83;;;7.40;;
7181;SDS011;3632;42.724;23.298;2023-10-13T05:54:10;13.13;;;7.43;;
7181;SDS011;3632;42.724;23.298;2023-10-13T05:56:55;17.03;;;9.23;;
7181;SDS011;3632;42.724;23.298;2023-10-13T05:59:39;17.50;;;8.43;;
7181;SDS011;3632;42.724;23.298;2023-10-13T06:02:23;16.07;;;9.13;;
7181;SDS011;3632;42.724;23.298;2023-10-13T06:05:08;14.23;;;8.23;;
7181;SDS011;3632;42.724;23.298;2023-10-13T06:07:53;14.00;;;9.10;;
7181;SDS011;3632;42.724;23.298;2023-10-13T06:10:39;16.43;;;8.90;;
7181;SDS011;3632;42.724;23.298;2023-10-13T06:13:33;14.73;;;9.20;;
7181;SDS011;3632;42.724;23.298;2023-10-13T06:16:17;13.87;;;9.30;;
7181;SDS011;3632;42.724;23.298;2023-10-13T06:19:01;14.83;;;9.87;;
7181;SDS011;3632;42.724;23.298;2023-10-13T06:21:46;13.50;;;9.57;;
7181;SDS011;3632;42.724;23.298;2023-10-13T06:24:30;18.23;;;9.00;;
7181;SDS011;3632;42.724;23.298;2023-10-13T06:27:16;17.63;;;9.87;;
7181;SDS011;3632;42.724;23.298;2023-10-13T06:30:01;16.67;;;10.83;;
7181;SDS011;3632;42.724;23.298;2023-10-13T06:32:29;19.03;;;10.70;;
7181;SDS011;3632;42.724;23.298;2023-10-13T06:34:58;21.90;;;10.30;;
7181;SDS011;3632;42.724;23.298;2023-10-13T06:37:30;19.53;;;9.87;;
7181;SDS011;3632;42.724;23.298;2023-10-13T06:39:59;16.40;;;9.90;;
7181;SDS011;3632;42.724;23.298;2023-10-13T06:42:33;18.07;;;10.30;;
7181;SDS011;3632;42.724;23.298;2023-10-13T06:45:02;15.87;;;10.63;;
7181;SDS011;3632;42.724;23.298;2023-10-13T06:47:33;18.93;;;10.03;;
7181;SDS011;3632;42.724;23.298;2023-10-13T06:50:05;15.77;;;10.00;;
7181;SDS011;3632;42.724;23.298;2023-10-13T06:52:40;15.10;;;9.67;;
7181;SDS011;3632;42.724;23.298;2023-10-13T06:55:07;14.30;;;10.13;;
7181;SDS011;3632;42.724;23.298;2023-10-13T06:57:37;18.10;;;10.40;;
7181;SDS011;3632;42.724;23.298;2023-10-13T07:00:08;20.47;;;12.07;;
7181;SDS011;3632;42.724;23.298;2023-10-13T07:02:44;20.43;;;14.23;;
7181;SDS011;3632;42.724;23.298;2023-10-13T07:05:13;20.67;;;15.03;;
7181;SDS011;3632;42.724;23.298;2023-10-13T07:07:40;32.33;;;20.63;;
7181;SDS011;3632;42.724;23.298;2023-10-13T07:10:08;50.17;;;31.47;;
7181;SDS011;3632;42.724;23.298;2023-10-13T07:12:38;28.37;;;16.33;;
7181;SDS011;3632;42.724;23.298;2023-10-13T07:15:08;21.77;;;14.83;;
7181;SDS011;3632;42.724;23.298;2023-10-13T07:17:44;22.73;;;14.30;;
7181;SDS011;3632;42.724;23.298;2023-10-13T07:20:12;20.87;;;14.67;;
7181;SDS011;3632;42.724;23.298;2023-10-13T07:22:49;24.33;;;15.70;;
7181;SDS011;3632;42.724;23.298;2023-10-13T07:25:22;22.40;;;15.70;;
7181;SDS011;3632;42.724;23.298;2023-10-13T07:27:52;22.73;;;16.43;;
7181;SDS011;3632;42.724;23.298;2023-10-13T07:30:22;23.67;;;14.97;;
7181;SDS011;3632;42.724;23.298;2023-10-13T07:32:51;23.63;;;16.07;;
7181;SDS011;3632;42.724;23.298;2023-10-13T07:35:19;17.70;;;14.97;;
7181;SDS011;3632;42.724;23.298;2023-10-13T07:37:49;24.60;;;14.33;;
7181;SDS011;3632;42.724;23.298;2023-10-13T07:40:17;22.00;;;16.73;;
7181;SDS011;3632;42.724;23.298;2023-10-13T07:43:06;20.53;;;14.17;;
7181;SDS011;3632;42.724;23.298;2023-10-13T07:45:36;19.73;;;13.37;;
7181;SDS011;3632;42.724;23.298;2023-10-13T07:48:03;23.90;;;13.90;;
7181;SDS011;3632;42.724;23.298;2023-10-13T07:50:37;19.53;;;13.03;;
7181;SDS011;3632;42.724;23.298;2023-10-13T07:53:04;18.50;;;12.80;;
7181;SDS011;3632;42.724;23.298;2023-10-13T07:55:43;20.60;;;14.13;;
7181;SDS011;3632;42.724;23.298;2023-10-13T07:58:13;19.23;;;12.37;;
7181;SDS011;3632;42.724;23.298;2023-10-13T08:00:39;26.40;;;16.63;;
7181;SDS011;3632;42.724;23.298;2023-10-13T08:03:19;21.27;;;14.20;;
7181;SDS011;3632;42.724;23.298;2023-10-13T08:06:00;16.47;;;12.53;;
7181;SDS011;3632;42.724;23.298;2023-10-13T08:08:32;20.17;;;13.33;;
7181;SDS011;3632;42.724;23.298;2023-10-13T08:11:04;19.87;;;13.80;;
7181;SDS011;3632;42.724;23.298;2023-10-13T08:13:38;24.63;;;15.20;;
7181;SDS011;3632;42.724;23.298;2023-10-13T08:16:11;23.03;;;14.43;;
7181;SDS011;3632;42.724;23.298;2023-10-13T08:18:46;19.13;;;14.37;;
7181;SDS011;3632;42.724;23.298;2023-10-13T08:21:14;22.13;;;13.77;;
7181;SDS011;3632;42.724;23.298;2023-10-13T08:23:45;25.37;;;14.40;;
7181;SDS011;3632;42.724;23.298;2023-10-13T08:26:30;19.87;;;13.83;;
7181;SDS011;3632;42.724;23.298;2023-10-13T08:29:18;24.50;;;15.17;;
7181;SDS011;3632;42.724;23.298;2023-10-13T08:32:11;21.43;;;15.93;;
7181;SDS011;3632;42.724;23.298;2023-10-13T08:35:00;29.20;;;15.63;;
7181;SDS011;3632;42.724;23.298;2023-10-13T08:37:35;22.53;;;14.97;;
7181;SDS011;3632;42.724;23.298;2023-10-13T08:40:22;22.50;;;14.37;;
7181;SDS011;3632;42.724;23.298;2023-10-13T08:43:03;21.67;;;14.17;;
7181;SDS011;3632;42.724;23.298;2023-10-13T08:45:39;25.67;;;15.10;;
7181;SDS011;3632;42.724;23.298;2023-10-13T08:48:25;25.20;;;16.13;;
7181;SDS011;3632;42.724;23.298;2023-10-13T08:50:57;22.30;;;14.23;;
7181;SDS011;3632;42.724;23.298;2023-10-13T08:53:34;29.83;;;15.47;;
7181;SDS011;3632;42.724;23.298;2023-10-13T08:56:09;20.93;;;14.13;;
7181;SDS011;3632;42.724;23.298;2023-10-13T08:58:40;25.60;;;14.37;;
7181;SDS011;3632;42.724;23.298;2023-10-13T09:01:33;24.50;;;16.03;;
7181;SDS011;3632;42.724;23.298;2023-10-13T09:04:02;19.63;;;12.80;;
7181;SDS011;3632;42.724;23.298;2023-10-13T09:06:50;22.47;;;11.60;;
7181;SDS011;3632;42.724;23.298;2023-10-13T09:09:43;21.20;;;11.63;;
7181;SDS011;3632;42.724;23.298;2023-10-13T09:12:26;20.30;;;11.87;;
7181;SDS011;3632;42.724;23.298;2023-10-13T09:15:01;15.97;;;10.63;;
7181;SDS011;3632;42.724;23.298;2023-10-13T09:17:32;19.37;;;11.87;;
7181;SDS011;3632;42.724;23.298;2023-10-13T09:20:07;26.07;;;14.37;;
7181;SDS011;3632;42.724;23.298;2023-10-13T09:22:56;25.20;;;13.10;;
7181;SDS011;3632;42.724;23.298;2023-10-13T09:25:33;22.53;;;11.27;;
7181;SDS011;3632;42.724;23.298;2023-10-13T09:28:00;15.83;;;10.50;;
7181;SDS011;3632;42.724;23.298;2023-10-13T09:30:27;24.13;;;15.00;;
7181;SDS011;3632;42.724;23.298;2023-10-13T09:33:01;25.93;;;18.10;;
7181;SDS011;3632;42.724;23.298;2023-10-13T09:35:29;24.07;;;12.27;;
7181;SDS011;3632;42.724;23.298;2023-10-13T09:37:59;18.93;;;10.77;;
7181;SDS011;3632;42.724;23.298;2023-10-13T09:40:27;18.37;;;10.07;;
7181;SDS011;3632;42.724;23.298;2023-10-13T09:42:59;17.67;;;10.07;;
7181;SDS011;3632;42.724;23.298;2023-10-13T09:45:32;17.80;;;11.87;;
7181;SDS011;3632;42.724;23.298;2023-10-13T09:48:03;18.90;;;9.50;;
7181;SDS011;3632;42.724;23.298;2023-10-13T09:50:36;20.63;;;7.60;;
7181;SDS011;3632;42.724;23.298;2023-10-13T09:53:06;22.80;;;9.07;;
7181;SDS011;3632;42.724;23.298;2023-10-13T09:55:36;21.03;;;8.47;;
7181;SDS011;3632;42.724;23.298;2023-10-13T09:58:10;16.90;;;7.80;;
7181;SDS011;3632;42.724;23.298;2023-10-13T10:00:43;14.17;;;7.23;;
7181;SDS011;3632;42.724;23.298;2023-10-13T10:03:16;16.33;;;7.97;;
7181;SDS011;3632;42.724;23.298;2023-10-13T10:06:01;12.27;;;7.37;;
7181;SDS011;3632;42.724;23.298;2023-10-13T10:08:38;12.77;;;6.83;;
7181;SDS011;3632;42.724;23.298;2023-10-13T10:11:23;9.67;;;6.83;;
7181;SDS011;3632;42.724;23.298;2023-10-13T10:14:07;12.37;;;7.47;;
7181;SDS011;3632;42.724;23.298;2023-10-13T10:16:39;12.17;;;6.50;;
7181;SDS011;3632;42.724;23.298;2023-10-13T10:19:26;16.00;;;6.90;;
7181;SDS011;3632;42.724;23.298;2023-10-13T10:22:00;7.33;;;4.70;;
7181;SDS011;3632;42.724;23.298;2023-10-13T10:24:35;9.43;;;5.07;;
7181;SDS011;3632;42.724;23.298;2023-10-13T10:27:03;10.43;;;5.20;;
7181;SDS011;3632;42.724;23.298;2023-10-13T10:29:31;6.60;;;4.63;;
7181;SDS011;3632;42.724;23.298;2023-10-13T10:31:59;8.97;;;5.10;;
7181;SDS011;3632;42.724;23.298;2023-10-13T10:34:33;9.27;;;4.93;;
7181;SDS011;3632;42.724;23.298;2023-10-13T10:37:00;8.30;;;4.90;;
7181;SDS011;3632;42.724;23.298;2023-10-13T10:39:34;14.93;;;5.80;;
7181;SDS011;3632;42.724;23.298;2023-10-13T10:42:10;8.87;;;5.17;;
7181;SDS011;3632;42.724;23.298;2023-10-13T10:44:49;8.77;;;5.00;;
7181;SDS011;3632;42.724;23.298;2023-10-13T10:47:20;11.63;;;5.53;;
7181;SDS011;3632;42.724;23.298;2023-10-13T10:49:57;11.70;;;5.73;;
7181;SDS011;3632;42.724;23.298;2023-10-13T10:52:25;9.73;;;5.43;;
7181;SDS011;3632;42.724;23.298;2023-10-13T10:55:02;9.10;;;6.43;;
7181;SDS011;3632;42.724;23.298;2023-10-13T10:57:32;9.20;;;5.77;;
7181;SDS011;3632;42.724;23.298;2023-10-13T11:00:02;7.80;;;4.97;;
7181;SDS011;3632;42.724;23.298;2023-10-13T11:02:36;19.40;;;5.10;;
7181;SDS011;3632;42.724;23.298;2023-10-13T11:05:05;7.80;;;4.30;;
7181;SDS011;3632;42.724;23.298;2023-10-13T11:07:34;9.67;;;5.43;;
7181;SDS011;3632;42.724;23.298;2023-10-13T11:10:06;8.97;;;4.73;;
7181;SDS011;3632;42.724;23.298;2023-10-13T11:12:37;6.17;;;3.93;;
7181;SDS011;3632;42.724;23.298;2023-10-13T11:15:05;6.47;;;3.33;;
7181;SDS011;3632;42.724;23.298;2023-10-13T11:17:39;8.52;;;3.10;;
7181;SDS011;3632;42.724;23.298;2023-10-13T11:20:16;5.53;;;3.17;;
7181;SDS011;3632;42.724;23.298;2023-10-13T11:22:51;7.78;;;2.90;;
7181;SDS011;3632;42.724;23.298;2023-10-13T11:25:22;7.07;;;3.28;;
7181;SDS011;3632;42.724;23.298;2023-10-13T11:27:54;5.47;;;3.33;;
7181;SDS011;3632;42.724;23.298;2023-10-13T11:30:23;10.27;;;3.60;;
7181;SDS011;3632;42.724;23.298;2023-10-13T11:33:06;4.72;;;2.42;;
7181;SDS011;3632;42.724;23.298;2023-10-13T11:35:36;4.57;;;2.58;;
7181;SDS011;3632;42.724;23.298;2023-10-13T11:38:28;6.18;;;4.05;;
7181;SDS011;3632;42.724;23.298;2023-10-13T11:41:06;6.95;;;3.20;;
7181;SDS011;3632;42.724;23.298;2023-10-13T11:43:37;9.57;;;3.92;;
7181;SDS011;3632;42.724;23.298;2023-10-13T11:46:18;6.40;;;3.10;;
7181;SDS011;3632;42.724;23.298;2023-10-13T11:49:12;5.20;;;3.17;;
7181;SDS011;3632;42.724;23.298;2023-10-13T11:51:44;5.70;;;3.17;;
7181;SDS011;3632;42.724;23.298;2023-10-13T11:54:12;5.40;;;3.00;;
7181;SDS011;3632;42.724;23.298;2023-10-13T11:56:40;6.43;;;3.30;;
7181;SDS011;3632;42.724;23.298;2023-10-13T11:59:07;9.00;;;3.08;;
7181;SDS011;3632;42.724;23.298;2023-10-13T12:01:41;6.15;;;3.20;;
7181;SDS011;3632;42.724;23.298;2023-10-13T12:04:26;6.22;;;3.67;;
7181;SDS011;3632;42.724;23.298;2023-10-13T12:07:01;6.15;;;3.63;;
7181;SDS011;3632;42.724;23.298;2023-10-13T12:09:40;7.15;;;3.35;;
7181;SDS011;3632;42.724;23.298;2023-10-13T12:12:18;13.30;;;11.85;;
7181;SDS011;3632;42.724;23.298;2023-10-13T12:14:45;5.57;;;4.00;;
7181;SDS011;3632;42.724;23.298;2023-10-13T12:17:20;4.43;;;3.15;;
7181;SDS011;3632;42.724;23.298;2023-10-13T12:19:53;5.47;;;2.78;;
7181;SDS011;3632;42.724;23.298;2023-10-13T12:22:23;8.35;;;3.33;;
7181;SDS011;3632;42.724;23.298;2023-10-13T12:24:53;4.78;;;3.20;;
7181;SDS011;3632;42.724;23.298;2023-10-13T12:27:20;7.82;;;3.80;;
7181;SDS011;3632;42.724;23.298;2023-10-13T12:29:52;9.57;;;4.90;;
7181;SDS011;3632;42.724;23.298;2023-10-13T12:32:21;5.35;;;3.67;;
7181;SDS011;3632;42.724;23.298;2023-10-13T12:34:50;4.82;;;2.83;;
7181;SDS011;3632;42.724;23.298;2023-10-13T12:37:27;5.85;;;3.30;;
7181;SDS011;3632;42.724;23.298;2023-10-13T12:40:18;4.85;;;3.75;;
7181;SDS011;3632;42.724;23.298;2023-10-13T12:43:03;9.63;;;5.38;;
7181;SDS011;3632;42.724;23.298;2023-10-13T12:45:49;6.68;;;3.30;;
7181;SDS011;3632;42.724;23.298;2023-10-13T12:48:34;8.40;;;3.72;;
7181;SDS011;3632;42.724;23.298;2023-10-13T12:51:19;5.75;;;3.40;;
7181;SDS011;3632;42.724;23.298;2023-10-13T12:54:06;5.88;;;4.10;;
7181;SDS011;3632;42.724;23.298;2023-10-13T12:56:40;9.30;;;4.18;;
7181;SDS011;3632;42.724;23.298;2023-10-13T12:59:07;9.25;;;5.35;;
7181;SDS011;3632;42.724;23.298;2023-10-13T13:01:38;7.03;;;3.42;;
7181;SDS011;3632;42.724;23.298;2023-10-13T13:04:07;9.80;;;4.30;;
7181;SDS011;3632;42.724;23.298;2023-10-13T13:06:37;5.32;;;3.33;;
7181;SDS011;3632;42.724;23.298;2023-10-13T13:09:06;6.40;;;4.40;;
7181;SDS011;3632;42.724;23.298;2023-10-13T13:11:35;8.88;;;4.38;;
7181;SDS011;3632;42.724;23.298;2023-10-13T13:14:05;7.90;;;6.13;;
7181;SDS011;3632;42.724;23.298;2023-10-13T13:16:33;12.65;;;10.40;;
7181;SDS011;3632;42.724;23.298;2023-10-13T13:19:01;6.95;;;4.45;;
7181;SDS011;3632;42.724;23.298;2023-10-13T13:21:39;7.35;;;3.80;;
7181;SDS011;3632;42.724;23.298;2023-10-13T13:24:08;9.68;;;5.00;;
7181;SDS011;3632;42.724;23.298;2023-10-13T13:26:39;7.97;;;4.57;;
7181;SDS011;3632;42.724;23.298;2023-10-13T13:29:06;7.28;;;5.00;;
7181;SDS011;3632;42.724;23.298;2023-10-13T13:31:35;6.78;;;3.92;;
7181;SDS011;3632;42.724;23.298;2023-10-13T13:34:11;9.05;;;4.90;;
7181;SDS011;3632;42.724;23.298;2023-10-13T13:36:38;8.55;;;4.03;;
7181;SDS011;3632;42.724;23.298;2023-10-13T13:39:10;10.52;;;4.45;;
7181;SDS011;3632;42.724;23.298;2023-10-13T13:41:37;11.57;;;4.55;;
7181;SDS011;3632;42.724;23.298;2023-10-13T13:44:04;9.48;;;5.93;;
7181;SDS011;3632;42.724;23.298;2023-10-13T13:46:39;8.90;;;4.95;;
7181;SDS011;3632;42.724;23.298;2023-10-13T13:49:07;8.60;;;4.80;;
7181;SDS011;3632;42.724;23.298;2023-10-13T13:51:43;8.80;;;4.82;;
7181;SDS011;3632;42.724;23.298;2023-10-13T13:54:18;7.70;;;3.78;;
7181;SDS011;3632;42.724;23.298;2023-10-13T13:56:45;8.05;;;3.55;;
7181;SDS011;3632;42.724;23.298;2023-10-13T13:59:12;6.00;;;3.72;;
7181;SDS011;3632;42.724;23.298;2023-10-13T14:01:45;7.13;;;4.22;;
7181;SDS011;3632;42.724;23.298;2023-10-13T14:04:12;5.78;;;4.53;;
7181;SDS011;3632;42.724;23.298;2023-10-13T14:06:42;6.88;;;4.60;;
7181;SDS011;3632;42.724;23.298;2023-10-13T14:09:10;8.43;;;4.43;;
7181;SDS011;3632;42.724;23.298;2023-10-13T14:11:43;8.55;;;5.10;;
7181;SDS011;3632;42.724;23.298;2023-10-13T14:14:27;6.90;;;4.78;;
7181;SDS011;3632;42.724;23.298;2023-10-13T14:16:58;9.88;;;4.03;;
7181;SDS011;3632;42.724;23.298;2023-10-13T14:19:32;8.23;;;4.55;;
7181;SDS011;3632;42.724;23.298;2023-10-13T14:21:59;8.90;;;5.25;;
7181;SDS011;3632;42.724;23.298;2023-10-13T14:24:31;6.25;;;4.30;;
7181;SDS011;3632;42.724;23.298;2023-10-13T14:27:02;11.57;;;6.80;;
7181;SDS011;3632;42.724;23.298;2023-10-13T14:29:34;7.00;;;4.60;;
7181;SDS011;3632;42.724;23.298;2023-10-13T14:32:05;9.38;;;5.20;;
7181;SDS011;3632;42.724;23.298;2023-10-13T14:34:37;7.47;;;4.80;;
7181;SDS011;3632;42.724;23.298;2023-10-13T14:37:04;10.23;;;5.38;;
7181;SDS011;3632;42.724;23.298;2023-10-13T14:39:31;7.88;;;4.50;;
7181;SDS011;3632;42.724;23.298;2023-10-13T14:42:01;12.07;;;4.75;;
7181;SDS011;3632;42.724;23.298;2023-10-13T14:44:31;8.10;;;4.55;;
7181;SDS011;3632;42.724;23.298;2023-10-13T14:46:57;7.57;;;4.28;;
7181;SDS011;3632;42.724;23.298;2023-10-13T14:49:24;6.45;;;4.03;;
7181;SDS011;3632;42.724;23.298;2023-10-13T14:51:51;14.02;;;4.88;;
7181;SDS011;3632;42.724;23.298;2023-10-13T14:54:20;10.73;;;7.87;;
7181;SDS011;3632;42.724;23.298;2023-10-13T14:56:57;9.80;;;4.80;;
7181;SDS011;3632;42.724;23.298;2023-10-13T14:59:26;10.13;;;6.20;;
7181;SDS011;3632;42.724;23.298;2023-10-13T15:01:58;10.43;;;4.70;;
7181;SDS011;3632;42.724;23.298;2023-10-13T15:04:27;10.07;;;4.40;;
7181;SDS011;3632;42.724;23.298;2023-10-13T15:06:57;10.63;;;5.07;;
7181;SDS011;3632;42.724;23.298;2023-10-13T15:09:26;7.30;;;4.67;;
7181;SDS011;3632;42.724;23.298;2023-10-13T15:11:53;11.47;;;4.63;;
7181;SDS011;3632;42.724;23.298;2023-10-13T15:14:20;13.73;;;5.13;;
7181;SDS011;3632;42.724;23.298;2023-10-13T15:16:49;15.70;;;5.43;;
7181;SDS011;3632;42.724;23.298;2023-10-13T15:19:17;14.73;;;5.27;;
7181;SDS011;3632;42.724;23.298;2023-10-13T15:21:44;30.27;;;12.20;;
7181;SDS011;3632;42.724;23.298;2023-10-13T15:24:14;23.87;;;8.03;;
7181;SDS011;3632;42.724;23.298;2023-10-13T15:26:42;18.33;;;5.00;;
7181;SDS011;3632;42.724;23.298;2023-10-13T15:29:12;12.77;;;4.67;;